YMA56A RJOB-RKPC
Flight info
| Callsign | YMA56A |
|---|---|
| Flight time | N/A |
| Altitude | 40000 |
| Route | OYE V28 MARCO Y284 KATTA V28 DGC A595 TAMNA TAMNA2M |
| Aircraft | A21N/H-SDE2E3GHIJ3J4J5LM1ORWXY/LB1D1 |
Departure
| Time | N/A |
|---|---|
| Airport | Okayama Momotaro Airport (RJOB) |
Arrival
| Time | 2026-04-30 10:16 |
|---|---|
| Airport | Jeju International Airport (RKPC) |
| Time | Latitude | Longitude | Altitude | Speed | Heading |
|---|---|---|---|---|---|
| 2026-04-30 09:22 | 34.28133 | 132.58803 | 25428 ft | 430 kts | 240° |
| 2026-04-30 09:23 | 34.26696 | 132.55641 | 25616 ft | 431 kts | 240° |
| 2026-04-30 09:23 | 34.25255 | 132.52481 | 25790 ft | 432 kts | 239° |
| 2026-04-30 09:23 | 34.23780 | 132.49252 | 25959 ft | 432 kts | 240° |
| 2026-04-30 09:23 | 34.22330 | 132.46079 | 26150 ft | 432 kts | 240° |
| 2026-04-30 09:24 | 34.20876 | 132.42897 | 26378 ft | 431 kts | 240° |
| 2026-04-30 09:24 | 34.19394 | 132.39653 | 26613 ft | 430 kts | 240° |
| 2026-04-30 09:24 | 34.17951 | 132.36506 | 26838 ft | 428 kts | 240° |
| 2026-04-30 09:24 | 34.16500 | 132.33337 | 27075 ft | 427 kts | 239° |
| 2026-04-30 09:25 | 34.15076 | 132.30235 | 27350 ft | 425 kts | 239° |
| 2026-04-30 09:25 | 34.13644 | 132.27117 | 27687 ft | 421 kts | 239° |
| 2026-04-30 09:25 | 34.12227 | 132.24032 | 28059 ft | 417 kts | 239° |
| 2026-04-30 09:25 | 34.10838 | 132.20984 | 28539 ft | 411 kts | 240° |
| 2026-04-30 09:26 | 34.09603 | 132.17889 | 29045 ft | 405 kts | 243° |
| 2026-04-30 09:26 | 34.08541 | 132.14720 | 29404 ft | 403 kts | 246° |
| 2026-04-30 09:26 | 34.07652 | 132.11483 | 29658 ft | 403 kts | 249° |
| 2026-04-30 09:26 | 34.06944 | 132.08231 | 29869 ft | 403 kts | 253° |
| 2026-04-30 09:27 | 34.06372 | 132.04929 | 30119 ft | 402 kts | 254° |
| 2026-04-30 09:27 | 34.05819 | 132.01619 | 30358 ft | 400 kts | 253° |
| 2026-04-30 09:27 | 34.05271 | 131.98331 | 30576 ft | 398 kts | 253° |
| 2026-04-30 09:27 | 34.04731 | 131.95058 | 30779 ft | 397 kts | 253° |
| 2026-04-30 09:28 | 34.04191 | 131.91806 | 30985 ft | 395 kts | 253° |
| 2026-04-30 09:28 | 34.03658 | 131.88573 | 31185 ft | 394 kts | 253° |
| 2026-04-30 09:28 | 34.03120 | 131.85331 | 31375 ft | 392 kts | 254° |
| 2026-04-30 09:28 | 34.02597 | 131.82147 | 31570 ft | 391 kts | 253° |
| 2026-04-30 09:29 | 34.02061 | 131.78909 | 31729 ft | 390 kts | 253° |
| 2026-04-30 09:29 | 34.01521 | 131.75671 | 31934 ft | 387 kts | 254° |
| 2026-04-30 09:29 | 34.00988 | 131.72462 | 32148 ft | 385 kts | 254° |
| 2026-04-30 09:29 | 34.00465 | 131.69316 | 32301 ft | 383 kts | 253° |
| 2026-04-30 09:30 | 33.99406 | 131.62967 | 32503 ft | 383 kts | 253° |
| 2026-04-30 09:30 | 33.98872 | 131.59786 | 32644 ft | 382 kts | 254° |
| 2026-04-30 09:30 | 33.98339 | 131.56616 | 32815 ft | 380 kts | 254° |
| 2026-04-30 09:31 | 33.97811 | 131.53484 | 32955 ft | 378 kts | 253° |
| 2026-04-30 09:31 | 33.97289 | 131.50370 | 33061 ft | 377 kts | 254° |
| 2026-04-30 09:31 | 33.96219 | 131.44029 | 33229 ft | 377 kts | 253° |
| 2026-04-30 09:32 | 33.95699 | 131.40940 | 33335 ft | 376 kts | 253° |
| 2026-04-30 09:32 | 33.95172 | 131.37836 | 33421 ft | 375 kts | 253° |
| 2026-04-30 09:32 | 33.94085 | 131.31670 | 33659 ft | 372 kts | 251° |
| 2026-04-30 09:33 | 33.93414 | 131.28657 | 33803 ft | 369 kts | 250° |
| 2026-04-30 09:33 | 33.92649 | 131.25699 | 33940 ft | 367 kts | 248° |
| 2026-04-30 09:33 | 33.91793 | 131.22808 | 34044 ft | 366 kts | 246° |
| 2026-04-30 09:33 | 33.90891 | 131.19876 | 34054 ft | 368 kts | 247° |
| 2026-04-30 09:34 | 33.89099 | 131.14013 | 33981 ft | 372 kts | 246° |
| 2026-04-30 09:34 | 33.87263 | 131.08099 | 34069 ft | 373 kts | 246° |
| 2026-04-30 09:35 | 33.85457 | 131.02195 | 34290 ft | 371 kts | 248° |
| 2026-04-30 09:35 | 33.83809 | 130.96290 | 34414 ft | 370 kts | 248° |
| 2026-04-30 09:36 | 33.82167 | 130.90439 | 34472 ft | 370 kts | 248° |
| 2026-04-30 09:36 | 33.80517 | 130.84562 | 34586 ft | 369 kts | 248° |
| 2026-04-30 09:37 | 33.79705 | 130.81675 | 34736 ft | 366 kts | 248° |
| 2026-04-30 09:37 | 33.78899 | 130.78801 | 35096 ft | 359 kts | 248° |
| 2026-04-30 09:37 | 33.78110 | 130.75990 | 35351 ft | 354 kts | 248° |
| 2026-04-30 09:37 | 33.77321 | 130.73199 | 35489 ft | 352 kts | 248° |
| 2026-04-30 09:38 | 33.75760 | 130.67670 | 35596 ft | 352 kts | 248° |
| 2026-04-30 09:38 | 33.74188 | 130.62109 | 35654 ft | 353 kts | 248° |
| 2026-04-30 09:39 | 33.72613 | 130.56540 | 35748 ft | 352 kts | 247° |
| 2026-04-30 09:39 | 33.71044 | 130.51008 | 35799 ft | 352 kts | 247° |
| 2026-04-30 09:40 | 33.69712 | 130.45343 | 35859 ft | 355 kts | 252° |
| 2026-04-30 09:40 | 33.68918 | 130.39466 | 35884 ft | 360 kts | 257° |
| 2026-04-30 09:41 | 33.68685 | 130.33387 | 35828 ft | 368 kts | 262° |
| 2026-04-30 09:41 | 33.69060 | 130.27153 | 35665 ft | 380 kts | 268° |
| 2026-04-30 09:42 | 33.69776 | 130.20788 | 35609 ft | 382 kts | 268° |
| 2026-04-30 09:42 | 33.70509 | 130.14416 | 35550 ft | 384 kts | 268° |
| 2026-04-30 09:43 | 33.71260 | 130.07982 | 35592 ft | 383 kts | 268° |
| 2026-04-30 09:43 | 33.71999 | 130.01606 | 35581 ft | 383 kts | 268° |
| 2026-04-30 09:44 | 33.72736 | 129.95244 | 35606 ft | 383 kts | 268° |
| 2026-04-30 09:44 | 33.73478 | 129.88797 | 35581 ft | 383 kts | 268° |
| 2026-04-30 09:45 | 33.74084 | 129.82386 | 35614 ft | 379 kts | 265° |
| 2026-04-30 09:45 | 33.74202 | 129.76073 | 35506 ft | 376 kts | 261° |
| 2026-04-30 09:46 | 33.73858 | 129.69851 | 35747 ft | 366 kts | 256° |
| 2026-04-30 09:46 | 33.73547 | 129.66813 | 35849 ft | 363 kts | 256° |
| 2026-04-30 09:46 | 33.73236 | 129.63776 | 35850 ft | 362 kts | 255° |
| 2026-04-30 09:47 | 33.72609 | 129.57783 | 35863 ft | 361 kts | 256° |
| 2026-04-30 09:47 | 33.71975 | 129.51809 | 35864 ft | 361 kts | 255° |
| 2026-04-30 09:48 | 33.71330 | 129.45830 | 35869 ft | 360 kts | 255° |
| 2026-04-30 09:48 | 33.70689 | 129.39884 | 35869 ft | 360 kts | 255° |
| 2026-04-30 09:49 | 33.70040 | 129.33941 | 35873 ft | 359 kts | 255° |
| 2026-04-30 09:49 | 33.69388 | 129.27986 | 35874 ft | 359 kts | 255° |
| 2026-04-30 09:50 | 33.68734 | 129.22033 | 35871 ft | 359 kts | 255° |
| 2026-04-30 09:50 | 33.68068 | 129.16058 | 35874 ft | 358 kts | 255° |
| 2026-04-30 09:51 | 33.67405 | 129.10091 | 35876 ft | 358 kts | 255° |
| 2026-04-30 09:51 | 33.66741 | 129.04140 | 35876 ft | 358 kts | 255° |
| 2026-04-30 09:52 | 33.66076 | 128.98203 | 35872 ft | 358 kts | 254° |
| 2026-04-30 09:52 | 33.65409 | 128.92278 | 35875 ft | 358 kts | 254° |
| 2026-04-30 09:53 | 33.64734 | 128.86325 | 35878 ft | 358 kts | 255° |
| 2026-04-30 09:53 | 33.64059 | 128.80383 | 35884 ft | 359 kts | 254° |
| 2026-04-30 09:54 | 33.63381 | 128.74451 | 35884 ft | 359 kts | 255° |
| 2026-04-30 09:54 | 33.62697 | 128.68480 | 35884 ft | 359 kts | 255° |
| 2026-04-30 09:55 | 33.62012 | 128.62529 | 35886 ft | 358 kts | 255° |
| 2026-04-30 09:55 | 33.61321 | 128.56565 | 35890 ft | 358 kts | 255° |
| 2026-04-30 09:56 | 33.60634 | 128.50613 | 35891 ft | 359 kts | 255° |
| 2026-04-30 09:56 | 33.59942 | 128.44690 | 35898 ft | 359 kts | 254° |
| 2026-04-30 09:57 | 33.59252 | 128.38806 | 35614 ft | 356 kts | 255° |
| 2026-04-30 09:57 | 33.58905 | 128.35873 | 35048 ft | 356 kts | 254° |
| 2026-04-30 09:57 | 33.58555 | 128.32906 | 34025 ft | 363 kts | 255° |
| 2026-04-30 09:58 | 33.58199 | 128.29881 | 32933 ft | 374 kts | 255° |
| 2026-04-30 09:58 | 33.57851 | 128.26786 | 31940 ft | 382 kts | 256° |
| 2026-04-30 09:58 | 33.57497 | 128.23621 | 30969 ft | 389 kts | 256° |
| 2026-04-30 09:58 | 33.57139 | 128.20391 | 29989 ft | 396 kts | 256° |
| 2026-04-30 09:59 | 33.56405 | 128.13786 | 28135 ft | 401 kts | 256° |
| 2026-04-30 09:59 | 33.55670 | 128.07214 | 26611 ft | 401 kts | 257° |
| 2026-04-30 10:00 | 33.54926 | 128.00601 | 25268 ft | 396 kts | 257° |
| 2026-04-30 10:00 | 33.54562 | 127.97368 | 24663 ft | 393 kts | 257° |
| 2026-04-30 10:01 | 33.53830 | 127.90915 | 23451 ft | 388 kts | 258° |
| 2026-04-30 10:01 | 33.53469 | 127.87753 | 22758 ft | 389 kts | 257° |
| 2026-04-30 10:01 | 33.53092 | 127.84486 | 21746 ft | 397 kts | 257° |
| 2026-04-30 10:02 | 33.52329 | 127.77893 | 19925 ft | 407 kts | 258° |
| 2026-04-30 10:02 | 33.51943 | 127.74543 | 19145 ft | 408 kts | 258° |
| 2026-04-30 10:02 | 33.51553 | 127.71185 | 18326 ft | 409 kts | 259° |
| 2026-04-30 10:02 | 33.51163 | 127.67807 | 17630 ft | 408 kts | 259° |
| 2026-04-30 10:03 | 33.50777 | 127.64476 | 16948 ft | 407 kts | 259° |
| 2026-04-30 10:03 | 33.50387 | 127.61123 | 16269 ft | 405 kts | 259° |
| 2026-04-30 10:03 | 33.50000 | 127.57813 | 15667 ft | 402 kts | 259° |
| 2026-04-30 10:03 | 33.49615 | 127.54508 | 14986 ft | 400 kts | 260° |
| 2026-04-30 10:04 | 33.49228 | 127.51207 | 14336 ft | 398 kts | 260° |
| 2026-04-30 10:04 | 33.48841 | 127.47920 | 13640 ft | 397 kts | 260° |
| 2026-04-30 10:04 | 33.48456 | 127.44647 | 13024 ft | 395 kts | 261° |
| 2026-04-30 10:04 | 33.48078 | 127.41424 | 12420 ft | 393 kts | 260° |
| 2026-04-30 10:05 | 33.47697 | 127.38208 | 11851 ft | 389 kts | 261° |
| 2026-04-30 10:05 | 33.47418 | 127.34957 | 11322 ft | 389 kts | 268° |
| 2026-04-30 10:05 | 33.47732 | 127.31735 | 11082 ft | 389 kts | 280° |
| 2026-04-30 10:05 | 33.48589 | 127.28703 | 10780 ft | 381 kts | 289° |
| 2026-04-30 10:06 | 33.49588 | 127.25807 | 10593 ft | 369 kts | 290° |
| 2026-04-30 10:06 | 33.50571 | 127.23012 | 10383 ft | 357 kts | 290° |
| 2026-04-30 10:06 | 33.51514 | 127.20309 | 10245 ft | 344 kts | 290° |
| 2026-04-30 10:06 | 33.52422 | 127.17684 | 10096 ft | 332 kts | 290° |
| 2026-04-30 10:07 | 33.53290 | 127.15162 | 9952 ft | 320 kts | 290° |
| 2026-04-30 10:07 | 33.54094 | 127.12718 | 9726 ft | 312 kts | 288° |
| 2026-04-30 10:07 | 33.54820 | 127.10298 | 9443 ft | 306 kts | 288° |
| 2026-04-30 10:07 | 33.55530 | 127.07906 | 9112 ft | 302 kts | 288° |
| 2026-04-30 10:08 | 33.56231 | 127.05544 | 8773 ft | 297 kts | 288° |
| 2026-04-30 10:08 | 33.56926 | 127.03203 | 8456 ft | 293 kts | 288° |
| 2026-04-30 10:08 | 33.57611 | 127.00893 | 8145 ft | 289 kts | 289° |
| 2026-04-30 10:08 | 33.58279 | 126.98640 | 7812 ft | 283 kts | 289° |
| 2026-04-30 10:09 | 33.58936 | 126.96426 | 7338 ft | 276 kts | 289° |
| 2026-04-30 10:09 | 33.59585 | 126.94233 | 6893 ft | 282 kts | 290° |
| 2026-04-30 10:09 | 33.60253 | 126.91990 | 6723 ft | 284 kts | 290° |
| 2026-04-30 10:09 | 33.60915 | 126.89765 | 6465 ft | 279 kts | 290° |
| 2026-04-30 10:10 | 33.61558 | 126.87594 | 5885 ft | 276 kts | 291° |
| 2026-04-30 10:10 | 33.62200 | 126.85421 | 5427 ft | 276 kts | 291° |
| 2026-04-30 10:10 | 33.62844 | 126.83245 | 5148 ft | 275 kts | 291° |
| 2026-04-30 10:10 | 33.63488 | 126.81064 | 4900 ft | 273 kts | 291° |
| 2026-04-30 10:11 | 33.64122 | 126.78915 | 4658 ft | 271 kts | 292° |
| 2026-04-30 10:11 | 33.64670 | 126.76776 | 4202 ft | 270 kts | 278° |
| 2026-04-30 10:11 | 33.64333 | 126.74566 | 3758 ft | 275 kts | 244° |
| 2026-04-30 10:11 | 33.63294 | 126.72585 | 3519 ft | 279 kts | 240° |
| 2026-04-30 10:12 | 33.62238 | 126.70622 | 3303 ft | 278 kts | 240° |
| 2026-04-30 10:12 | 33.61206 | 126.68661 | 3108 ft | 277 kts | 242° |
| 2026-04-30 10:12 | 33.60225 | 126.66769 | 2979 ft | 254 kts | 242° |
| 2026-04-30 10:12 | 33.59333 | 126.65038 | 2904 ft | 232 kts | 242° |
| 2026-04-30 10:13 | 33.58515 | 126.63443 | 2715 ft | 218 kts | 242° |
| 2026-04-30 10:13 | 33.57751 | 126.61957 | 2478 ft | 200 kts | 243° |
| 2026-04-30 10:13 | 33.57043 | 126.60579 | 2172 ft | 188 kts | 243° |
| 2026-04-30 10:13 | 33.56379 | 126.59288 | 1897 ft | 174 kts | 243° |
| 2026-04-30 10:14 | 33.55772 | 126.58111 | 1633 ft | 160 kts | 244° |
| 2026-04-30 10:14 | 33.55197 | 126.56992 | 1430 ft | 157 kts | 244° |
| 2026-04-30 10:14 | 33.54060 | 126.54773 | 1050 ft | 156 kts | 242° |
| 2026-04-30 10:15 | 33.53496 | 126.53675 | 847 ft | 155 kts | 242° |
| 2026-04-30 10:15 | 33.52935 | 126.52582 | 639 ft | 154 kts | 242° |
| 2026-04-30 10:15 | 33.52371 | 126.51486 | 429 ft | 153 kts | 241° |
| 2026-04-30 10:15 | 33.51817 | 126.50408 | 224 ft | 153 kts | 240° |
| 2026-04-30 10:16 | 33.51268 | 126.49337 | 75 ft | 144 kts | 240° |
| 2026-04-30 10:16 | 33.50832 | 126.48474 | 66 ft | 96 kts | 238° |
| 2026-04-30 10:16 | 33.50565 | 126.48038 | 79 ft | 37 kts | 224° |
| 2026-04-30 10:17 | 33.50421 | 126.48071 | 87 ft | 16 kts | 58° |
| 2026-04-30 10:17 | 33.50558 | 126.48336 | 79 ft | 26 kts | 63° |
| 2026-04-30 10:17 | 33.50679 | 126.48573 | 77 ft | 40 kts | 56° |
| 2026-04-30 10:18 | 33.50841 | 126.48875 | 73 ft | 44 kts | 58° |
| 2026-04-30 10:18 | 33.50926 | 126.49134 | 77 ft | 29 kts | 102° |
| 2026-04-30 10:18 | 33.50883 | 126.49376 | 85 ft | 24 kts | 100° |
| 2026-04-30 10:19 | 33.50807 | 126.49489 | 90 ft | 0 kts | 178° |
| 2026-04-30 10:19 | 33.50806 | 126.49489 | 90 ft | 0 kts | 178° |